Terminal Aerodrome Forecast
Issued by NWS Cleveland, OH

Home | Current Version | Previous Version | Text Only | Print | Product List | Glossary Off
Versions: 1 2 3 4 5 6 7 8 9 10 11 12 13

717
FTUS41 KCLE 171138
TAFERI
TAF
KERI 171138Z 1712/1812 16008KT P6SM SCT050 BKN150
     FM180500 20012G20KT P6SM BKN250=

USA.gov is the U.S. government's official web portal to all federal, state and local government web resources and services.